Star City, Canada
Current Conditions -  °F | °C
As of 4:00 AM on Friday 21 Nov 2014 (Local Time) from CYBU Reporting Station
Light Snow Light Snow  
Wind Chill: 19°   Ceiling: 6500
Heat Index: 27°   Visibility: 9mi
Dew Point: 25°   Wind: 7mph
Humidity: 93%   Direction: 180°S
Pressure: 29.45"   Gusts: NA
Location:  52.87°N, 104.33°W
Report Text: CYBU 211000Z AUTO 18006KT 9SM -SN BKN065 OVC084 M03/M04 A2945 RMK ICG PAST HR SLP997
Loading
Personal Weather Stations






























Interactive Weather Map New forecast layout! Learn more

10-Day Weather Forecast

Advertisements
Track Severe Weather on mobile